createdAt,value
2023-04-14T00:01:35.435Z,2.29
2023-04-14T00:04:02.810Z,2.04
2023-04-14T00:06:30.126Z,2.10
2023-04-14T00:08:56.812Z,1.94
2023-04-14T00:11:23.533Z,1.96
2023-04-14T00:13:50.306Z,1.81
2023-04-14T00:16:18.210Z,1.55
2023-04-14T00:18:45.979Z,1.64
2023-04-14T00:21:12.813Z,1.78
2023-04-14T00:23:40.071Z,1.61
2023-04-14T00:26:07.333Z,1.74
2023-04-14T00:28:34.375Z,1.62
2023-04-14T00:31:01.545Z,1.67
2023-04-14T00:33:28.659Z,1.68
2023-04-14T00:35:55.477Z,1.54
2023-04-14T00:38:22.229Z,1.74
2023-04-14T00:40:49.003Z,1.70
2023-04-14T00:43:18.964Z,1.63
2023-04-14T00:45:46.156Z,1.74
2023-04-14T00:48:14.349Z,1.85
2023-04-14T00:50:41.021Z,1.82
2023-04-14T00:53:07.862Z,1.81
2023-04-14T00:55:34.658Z,1.73
2023-04-14T00:58:01.445Z,1.89
2023-04-14T01:00:28.174Z,2.00
2023-04-14T01:02:55.100Z,2.63
2023-04-14T01:05:23.133Z,2.25
2023-04-14T01:07:50.171Z,1.68
2023-04-14T01:10:16.964Z,1.70
2023-04-14T01:12:46.879Z,1.81
2023-04-14T01:15:54.836Z,2.01
2023-04-14T01:18:28.546Z,1.86
2023-04-14T01:20:59.170Z,1.75
2023-04-14T01:23:26.783Z,1.71
2023-04-14T01:26:23.540Z,1.74
2023-04-14T01:29:21.026Z,2.17
2023-04-14T01:31:49.071Z,1.63
2023-04-14T01:34:22.733Z,1.91
2023-04-14T01:36:58.566Z,1.94
2023-04-14T01:39:27.658Z,1.98
2023-04-14T01:41:57.662Z,1.99
2023-04-14T01:44:25.299Z,1.84
2023-04-14T01:46:53.263Z,1.85
2023-04-14T01:49:19.963Z,1.91
2023-04-14T01:51:46.803Z,1.93
2023-04-14T01:54:13.863Z,1.92
2023-04-14T01:56:40.981Z,2.09
2023-04-14T01:59:08.736Z,1.96
2023-04-14T02:01:35.481Z,2.01
2023-04-14T02:04:02.359Z,2.11
2023-04-14T02:06:29.299Z,2.04
2023-04-14T02:08:55.987Z,1.97
2023-04-14T02:11:22.726Z,1.94
2023-04-14T02:13:49.868Z,1.78
2023-04-14T02:16:17.573Z,2.17
2023-04-14T02:18:44.266Z,2.33
2023-04-14T02:21:11.403Z,2.37
2023-04-14T02:23:38.151Z,2.62
2023-04-14T02:26:07.004Z,2.82
2023-04-14T02:28:34.413Z,2.80
2023-04-14T02:31:02.197Z,2.68
2023-04-14T02:33:31.817Z,2.53
2023-04-14T02:36:03.433Z,2.61
2023-04-14T02:38:39.813Z,2.74
2023-04-14T02:41:22.304Z,2.43
2023-04-14T02:44:14.614Z,2.64
2023-04-14T02:46:42.180Z,2.72
2023-04-14T02:49:11.721Z,2.63
2023-04-14T02:51:39.722Z,2.64
2023-04-14T02:54:06.705Z,2.64
2023-04-14T02:56:33.450Z,2.74
2023-04-14T02:59:05.398Z,2.48
2023-04-14T03:01:32.187Z,2.62
2023-04-14T03:04:00.418Z,2.42
2023-04-14T03:06:27.401Z,2.19
2023-04-14T03:08:54.368Z,2.32
2023-04-14T03:11:21.877Z,2.27
2023-04-14T03:13:50.734Z,2.35
2023-04-14T03:16:18.022Z,2.50
2023-04-14T03:18:44.868Z,2.55
2023-04-14T03:21:11.606Z,2.39
2023-04-14T03:23:38.353Z,2.41
2023-04-14T03:26:05.592Z,2.40
2023-04-14T03:28:34.076Z,2.66
2023-04-14T03:31:01.918Z,2.52
2023-04-14T03:33:29.753Z,2.50
2023-04-14T03:36:00.905Z,2.38
2023-04-14T03:38:27.634Z,2.24
2023-04-14T03:40:54.398Z,2.49
2023-04-14T03:43:21.501Z,2.56
2023-04-14T03:45:48.865Z,2.68
2023-04-14T03:48:16.481Z,2.20
2023-04-14T03:50:43.183Z,2.43
2023-04-14T03:53:10.631Z,2.35
2023-04-14T03:55:37.334Z,2.41
2023-04-14T03:58:04.091Z,2.45
2023-04-14T04:00:30.821Z,2.43
2023-04-14T04:02:57.704Z,2.60
2023-04-14T04:05:24.682Z,2.60
2023-04-14T04:07:54.163Z,2.45
2023-04-14T04:10:20.921Z,2.80
2023-04-14T04:12:47.952Z,2.49
2023-04-14T04:15:14.820Z,2.72
2023-04-14T04:17:41.928Z,2.75
2023-04-14T04:20:11.661Z,2.68
2023-04-14T04:22:39.697Z,3.02
2023-04-14T04:25:08.036Z,3.22
2023-04-14T04:27:37.916Z,3.22
2023-04-14T04:30:07.355Z,3.31
2023-04-14T04:32:38.720Z,3.76
2023-04-14T04:35:06.024Z,3.75
2023-04-14T04:37:33.114Z,3.73
2023-04-14T04:39:59.826Z,3.52
2023-04-14T04:42:26.716Z,3.45
2023-04-14T04:44:53.610Z,3.33
2023-04-14T04:47:20.573Z,2.97
2023-04-14T04:49:49.469Z,3.14
2023-04-14T04:52:16.562Z,3.38
2023-04-14T04:54:43.359Z,3.66
2023-04-14T04:57:11.681Z,3.09
2023-04-14T04:59:39.018Z,3.01
2023-04-14T05:02:06.032Z,2.63
2023-04-14T05:04:32.819Z,2.56
2023-04-14T05:06:59.667Z,2.68
2023-04-14T05:09:26.353Z,2.97
2023-04-14T05:11:53.054Z,2.92
2023-04-14T05:14:19.810Z,2.84
2023-04-14T05:16:49.574Z,2.60
2023-04-14T05:19:16.994Z,2.64
2023-04-14T05:21:43.719Z,2.46
2023-04-14T05:24:13.752Z,2.46
2023-04-14T05:29:15.777Z,2.72
2023-04-14T05:31:43.649Z,2.55
2023-04-14T05:34:11.138Z,2.60
2023-04-14T05:36:40.577Z,2.60
2023-04-14T05:39:07.406Z,2.81
2023-04-14T05:41:34.476Z,2.77
2023-04-14T05:44:01.695Z,2.85
2023-04-14T05:46:28.670Z,2.72
2023-04-14T05:48:55.922Z,2.58
2023-04-14T05:51:24.802Z,2.71
2023-04-14T05:53:52.509Z,2.87
2023-04-14T05:56:19.362Z,3.06
2023-04-14T05:58:46.091Z,2.79
2023-04-14T06:01:12.932Z,2.77
2023-04-14T06:03:40.722Z,2.82
2023-04-14T06:06:07.689Z,2.59
2023-04-14T06:08:34.435Z,2.50
2023-04-14T06:11:23.972Z,2.86
2023-04-14T06:13:50.738Z,2.91
2023-04-14T06:16:19.815Z,2.79
2023-04-14T06:18:46.522Z,2.51
2023-04-14T06:21:13.207Z,3.03
2023-04-14T06:23:44.126Z,2.64
2023-04-14T06:26:10.807Z,2.79
2023-04-14T06:28:38.558Z,2.78
2023-04-14T06:31:06.572Z,2.82
2023-04-14T06:33:33.494Z,2.88
2023-04-14T06:36:00.201Z,2.53
2023-04-14T06:38:26.886Z,2.37
2023-04-14T06:40:53.610Z,2.30
2023-04-14T06:43:20.856Z,2.29
2023-04-14T06:45:47.578Z,2.43
2023-04-14T06:48:14.318Z,2.52
2023-04-14T06:50:44.196Z,2.75
2023-04-14T06:53:11.460Z,3.67
2023-04-14T06:55:41.199Z,2.76
2023-04-14T06:58:08.385Z,2.88
2023-04-14T07:00:35.090Z,2.44
2023-04-14T07:03:01.988Z,2.41
2023-04-14T07:05:30.389Z,2.28
2023-04-14T07:07:57.545Z,2.39
2023-04-14T07:10:24.274Z,2.29
2023-04-14T07:12:51.707Z,2.13
2023-04-14T07:15:18.598Z,1.94
2023-04-14T07:17:45.881Z,2.05
2023-04-14T07:20:13.062Z,2.20
2023-04-14T07:22:40.027Z,2.57
2023-04-14T07:25:09.928Z,2.63
2023-04-14T07:27:37.227Z,2.31
2023-04-14T07:30:04.212Z,2.63
2023-04-14T07:32:31.790Z,2.44
2023-04-14T07:34:59.135Z,2.68
2023-04-14T07:37:26.282Z,3.01
2023-04-14T07:39:53.058Z,3.00
2023-04-14T07:42:20.833Z,2.99
2023-04-14T07:44:48.066Z,2.60
2023-04-14T07:47:14.821Z,2.45
2023-04-14T07:49:41.592Z,2.51
2023-04-14T07:52:08.718Z,2.65
2023-04-14T07:54:35.419Z,3.02
2023-04-14T07:57:02.235Z,2.78
2023-04-14T07:59:28.941Z,2.62
2023-04-14T08:01:55.806Z,2.55
2023-04-14T08:04:22.739Z,2.53
2023-04-14T08:06:49.526Z,2.34
2023-04-14T08:09:16.337Z,2.48
2023-04-14T08:11:43.207Z,2.44
2023-04-14T08:14:10.226Z,2.52
2023-04-14T08:16:37.617Z,2.44
2023-04-14T08:19:04.676Z,2.91
2023-04-14T08:21:32.473Z,2.71
2023-04-14T08:23:59.311Z,2.54
2023-04-14T08:26:26.217Z,2.37
2023-04-14T08:28:53.669Z,2.20
2023-04-14T08:31:22.727Z,2.50
2023-04-14T08:33:49.697Z,1.93
2023-04-14T08:36:16.880Z,2.17
2023-04-14T08:38:43.638Z,1.99
2023-04-14T08:41:10.341Z,1.96
2023-04-14T08:43:37.232Z,2.20
2023-04-14T08:46:04.490Z,2.04
2023-04-14T08:48:31.473Z,1.51
2023-04-14T08:51:40.248Z,1.79
2023-04-14T08:54:11.772Z,1.88
2023-04-14T08:56:40.295Z,2.02
2023-04-14T08:59:08.012Z,2.00
2023-04-14T09:01:36.025Z,2.01
2023-04-14T09:04:03.962Z,2.34
2023-04-14T09:06:31.682Z,2.28
2023-04-14T09:09:00.196Z,2.35
2023-04-14T09:11:27.750Z,2.18
2023-04-14T09:13:54.518Z,2.06
2023-04-14T09:16:22.336Z,1.78
2023-04-14T09:18:50.975Z,1.71
2023-04-14T09:21:31.186Z,1.41
2023-04-14T09:24:05.468Z,1.74
2023-04-14T09:26:33.334Z,1.74
2023-04-14T09:29:00.469Z,1.46
2023-04-14T09:31:27.555Z,1.49
2023-04-14T09:33:54.470Z,1.55
2023-04-14T09:36:24.719Z,1.59
2023-04-14T09:38:51.642Z,1.93
2023-04-14T09:41:22.499Z,1.84
2023-04-14T09:43:49.913Z,1.93
2023-04-14T09:46:17.080Z,1.88
2023-04-14T09:49:10.351Z,1.73
2023-04-14T09:51:40.112Z,1.66
2023-04-14T09:54:07.240Z,1.66
2023-04-14T09:56:34.186Z,1.93
2023-04-14T09:59:01.568Z,1.45
2023-04-14T10:01:30.456Z,1.41
2023-04-14T10:03:57.577Z,1.50
2023-04-14T10:06:24.558Z,1.72
2023-04-14T10:08:52.373Z,1.51
2023-04-14T10:11:29.053Z,1.62
2023-04-14T10:14:02.667Z,1.43
2023-04-14T10:16:31.208Z,1.68
2023-04-14T10:19:03.684Z,1.29
2023-04-14T10:21:31.150Z,1.34
2023-04-14T10:23:58.405Z,1.18
2023-04-14T10:26:25.428Z,1.18
2023-04-14T10:28:53.730Z,1.59
2023-04-14T10:31:25.294Z,1.42
2023-04-14T10:33:53.207Z,1.65
2023-04-14T10:36:24.344Z,1.18
2023-04-14T10:38:58.049Z,1.24
2023-04-14T10:41:24.990Z,1.03
2023-04-14T10:43:52.495Z,1.08
2023-04-14T10:46:43.785Z,1.15
2023-04-14T10:49:11.978Z,1.11
2023-04-14T10:51:38.730Z,1.09
2023-04-14T10:54:05.796Z,1.15
2023-04-14T10:56:32.662Z,1.09
2023-04-14T10:58:59.612Z,1.01
2023-04-14T11:01:30.981Z,1.04
2023-04-14T11:03:58.647Z,1.17
2023-04-14T11:06:48.182Z,1.22
2023-04-14T11:09:30.098Z,1.23
2023-04-14T11:11:56.821Z,1.00
2023-04-14T11:14:28.261Z,1.23
2023-04-14T11:17:24.968Z,1.21
2023-04-14T11:19:54.288Z,1.11
2023-04-14T11:22:40.167Z,1.10
2023-04-14T11:25:07.782Z,1.01
2023-04-14T11:27:34.756Z,1.15
2023-04-14T11:30:01.488Z,1.17
2023-04-14T11:32:28.276Z,1.21
2023-04-14T11:34:55.118Z,1.06
2023-04-14T11:37:22.827Z,1.28
2023-04-14T11:39:50.106Z,1.09
2023-04-14T11:42:16.790Z,1.14
2023-04-14T11:44:43.517Z,1.09
2023-04-14T11:47:10.360Z,1.10
2023-04-14T11:49:37.049Z,1.08
2023-04-14T11:52:07.703Z,1.13
2023-04-14T11:54:38.050Z,1.02
2023-04-14T11:57:11.800Z,1.21
2023-04-14T11:59:45.602Z,1.01
2023-04-14T12:02:19.659Z,1.15
2023-04-14T12:04:47.106Z,1.04
2023-04-14T12:07:16.861Z,1.25
2023-04-14T12:09:47.942Z,1.12
2023-04-14T12:12:17.509Z,1.20
2023-04-14T12:14:45.308Z,1.11
2023-04-14T12:17:11.974Z,1.05
2023-04-14T12:19:39.116Z,1.04
2023-04-14T12:22:06.069Z,1.14
2023-04-14T12:24:40.812Z,1.06
2023-04-14T12:27:07.948Z,0.98
2023-04-14T12:29:37.055Z,1.10
2023-04-14T12:32:10.541Z,1.10
2023-04-14T12:34:37.743Z,1.07
2023-04-14T12:37:11.162Z,1.12
2023-04-14T12:39:54.733Z,1.19
2023-04-14T12:42:22.812Z,0.98
2023-04-14T12:45:02.159Z,1.09
2023-04-14T12:47:33.324Z,0.95
2023-04-14T12:50:01.447Z,1.00
2023-04-14T12:52:39.263Z,0.99
2023-04-14T12:55:06.913Z,1.04
2023-04-14T12:57:35.098Z,0.91
2023-04-14T13:00:01.973Z,1.04
2023-04-14T13:02:29.608Z,1.09
2023-04-14T13:04:56.796Z,1.01
2023-04-14T13:07:23.772Z,0.97
2023-04-14T13:09:51.076Z,1.17
2023-04-14T13:12:21.069Z,0.97
2023-04-14T13:14:47.742Z,0.81
2023-04-14T13:17:14.527Z,0.89
2023-04-14T13:19:41.724Z,0.95
2023-04-14T13:22:08.835Z,1.06
2023-04-14T13:24:37.366Z,1.08
2023-04-14T13:27:04.325Z,1.20
2023-04-14T13:29:34.172Z,1.05
2023-04-14T13:32:01.674Z,0.91
2023-04-14T13:34:28.534Z,1.07
2023-04-14T13:36:55.439Z,0.99
2023-04-14T13:39:22.259Z,1.17
2023-04-14T13:41:49.000Z,1.19
2023-04-14T13:44:17.153Z,1.16
2023-04-14T13:46:46.998Z,1.27
2023-04-14T13:49:13.814Z,1.17
2023-04-14T13:51:40.700Z,1.19
2023-04-14T13:54:07.816Z,1.06
2023-04-14T13:56:34.678Z,1.15
2023-04-14T13:59:01.724Z,1.27
2023-04-14T14:01:29.030Z,1.25
2023-04-14T14:03:56.122Z,1.35
2023-04-14T14:06:23.122Z,1.34
2023-04-14T14:09:05.694Z,1.24
2023-04-14T14:11:33.162Z,1.34
2023-04-14T14:14:01.869Z,1.36
2023-04-14T14:16:36.820Z,1.64
2023-04-14T14:19:04.711Z,1.76
2023-04-14T14:21:31.596Z,1.66
2023-04-14T14:23:59.286Z,1.78
2023-04-14T14:26:26.394Z,1.94
2023-04-14T14:28:53.105Z,1.87
2023-04-14T14:31:19.948Z,1.91
2023-04-14T14:33:47.288Z,1.93
2023-04-14T14:36:14.257Z,2.13
2023-04-14T14:38:41.087Z,1.97
2023-04-14T14:41:08.069Z,2.04
2023-04-14T14:43:35.514Z,2.24
2023-04-14T14:46:03.914Z,2.04
2023-04-14T14:48:31.151Z,1.93
2023-04-14T14:51:00.345Z,1.78
2023-04-14T14:53:27.598Z,1.79
2023-04-14T14:55:55.325Z,1.93
2023-04-14T14:58:22.789Z,1.49
2023-04-14T15:00:49.554Z,1.96
2023-04-14T15:03:16.423Z,1.48
2023-04-14T15:05:43.146Z,1.27
2023-04-14T15:08:10.172Z,1.53
2023-04-14T15:10:36.932Z,1.34
2023-04-14T15:13:03.649Z,1.33
2023-04-14T15:15:31.620Z,1.32
2023-04-14T15:17:58.771Z,1.44
2023-04-14T15:20:25.583Z,1.30
2023-04-14T15:22:52.416Z,1.25
2023-04-14T15:25:19.205Z,1.14
2023-04-14T15:27:45.948Z,1.25
2023-04-14T15:30:13.372Z,1.59
2023-04-14T15:32:40.134Z,1.27
2023-04-14T15:35:07.028Z,1.08
2023-04-14T15:37:33.715Z,1.09
2023-04-14T15:40:00.423Z,1.20
2023-04-14T15:42:27.159Z,1.11
2023-04-14T15:44:54.180Z,1.17
2023-04-14T15:47:20.855Z,1.28
2023-04-14T15:49:49.894Z,1.43
2023-04-14T15:52:34.227Z,1.36
2023-04-14T15:55:01.425Z,1.31
2023-04-14T15:57:28.104Z,1.15
2023-04-14T15:59:56.317Z,1.12
2023-04-14T16:02:23.370Z,1.21
2023-04-14T16:04:50.249Z,1.15
2023-04-14T16:07:16.986Z,1.18
2023-04-14T16:09:43.653Z,1.09
2023-04-14T16:12:10.349Z,0.99
2023-04-14T16:14:37.069Z,0.93
2023-04-14T16:17:03.728Z,1.24
2023-04-14T16:19:30.477Z,1.16
2023-04-14T16:21:59.946Z,1.20
2023-04-14T16:24:26.617Z,1.14
2023-04-14T16:26:53.465Z,1.14
2023-04-14T16:29:20.213Z,1.31
2023-04-14T16:31:47.096Z,1.29
2023-04-14T16:34:13.824Z,1.34
2023-04-14T16:36:40.589Z,1.15
2023-04-14T16:39:08.323Z,1.16
2023-04-14T16:41:35.086Z,1.19
2023-04-14T16:44:02.334Z,0.95
2023-04-14T16:46:29.290Z,1.11
2023-04-14T16:48:56.028Z,1.18
2023-04-14T16:51:22.773Z,1.27
2023-04-14T16:53:49.451Z,1.18
2023-04-14T16:56:16.242Z,1.28
2023-04-14T16:58:43.303Z,1.33
2023-04-14T17:01:11.050Z,1.16
2023-04-14T17:03:37.848Z,1.10
2023-04-14T17:06:05.703Z,1.19
2023-04-14T17:08:32.460Z,1.25
2023-04-14T17:10:59.187Z,1.22
2023-04-14T17:13:25.864Z,1.14
2023-04-14T17:16:02.462Z,1.11
2023-04-14T17:18:34.849Z,1.20
2023-04-14T17:21:01.609Z,1.11
2023-04-14T17:23:28.322Z,1.09
2023-04-14T17:25:55.025Z,1.38
2023-04-14T17:28:24.566Z,1.43
2023-04-14T17:30:51.246Z,1.43
2023-04-14T17:33:18.540Z,1.33
2023-04-14T17:35:45.299Z,1.44
2023-04-14T17:38:12.001Z,1.46
2023-04-14T17:40:38.687Z,1.31
2023-04-14T17:43:05.392Z,1.37
2023-04-14T17:45:32.068Z,1.50
2023-04-14T17:47:58.860Z,1.52
2023-04-14T17:50:25.616Z,1.56
2023-04-14T17:52:52.336Z,1.73
2023-04-14T17:55:19.087Z,1.71
2023-04-14T17:57:45.915Z,2.73
2023-04-14T18:00:13.086Z,2.46
2023-04-14T18:02:39.943Z,2.00
2023-04-14T18:05:07.054Z,1.78
2023-04-14T18:07:33.786Z,1.49
2023-04-14T18:10:01.050Z,1.52
2023-04-14T18:12:27.859Z,1.60
2023-04-14T18:14:54.663Z,1.54
2023-04-14T18:17:21.450Z,1.53
2023-04-14T18:19:48.528Z,1.45
2023-04-14T18:22:15.204Z,1.41
2023-04-14T18:29:42.632Z,1.71
2023-04-14T18:32:12.288Z,1.52
2023-04-14T18:34:39.036Z,1.38
2023-04-14T18:37:06.781Z,1.40
2023-04-14T18:39:33.623Z,1.60
2023-04-14T18:42:00.698Z,1.62
2023-04-14T18:44:27.389Z,1.52
2023-04-14T18:46:54.475Z,1.54
2023-04-14T18:49:21.301Z,1.54
2023-04-14T18:51:48.408Z,2.07
2023-04-14T18:54:15.214Z,2.18
2023-04-14T18:56:41.960Z,2.20
2023-04-14T18:59:08.676Z,2.06
2023-04-14T19:01:35.981Z,2.20
2023-04-14T19:04:03.083Z,2.91
2023-04-14T19:06:31.332Z,3.23
2023-04-14T19:08:58.420Z,2.58
2023-04-14T19:11:25.138Z,2.29
2023-04-14T19:13:52.158Z,1.83
2023-04-14T19:16:20.250Z,1.92
2023-04-14T19:18:46.982Z,6.38
2023-04-14T19:21:13.654Z,2.12
2023-04-14T19:23:40.427Z,1.72
2023-04-14T19:26:08.259Z,1.56
2023-04-14T19:28:36.051Z,1.44
2023-04-14T19:31:04.010Z,1.55
2023-04-14T19:33:30.718Z,1.55
2023-04-14T19:35:58.844Z,1.60
2023-04-14T19:38:26.034Z,1.68
2023-04-14T19:40:52.721Z,1.66
2023-04-14T19:43:19.422Z,1.78
2023-04-14T19:45:50.181Z,1.92
2023-04-14T19:48:23.376Z,1.87
2023-04-14T19:50:55.345Z,1.70
2023-04-14T19:53:23.656Z,1.77
2023-04-14T19:55:51.307Z,1.59
2023-04-14T19:58:19.111Z,1.58
2023-04-14T20:00:47.013Z,1.58
2023-04-14T20:03:14.655Z,1.57
2023-04-14T20:05:42.765Z,1.89
2023-04-14T20:08:09.549Z,1.65
2023-04-14T20:10:37.643Z,1.66
2023-04-14T20:13:04.344Z,1.70
2023-04-14T20:15:31.412Z,1.76
2023-04-14T20:17:58.166Z,1.74
2023-04-14T20:20:24.969Z,1.50
2023-04-14T20:22:51.854Z,1.55
2023-04-14T20:25:18.745Z,1.66
2023-04-14T20:27:45.510Z,1.58
2023-04-14T20:30:12.265Z,1.48
2023-04-14T20:32:39.415Z,1.76
2023-04-14T20:35:06.368Z,1.81
2023-04-14T20:37:33.126Z,1.83
2023-04-14T20:40:02.820Z,1.62
2023-04-14T20:42:33.004Z,1.50
2023-04-14T20:45:01.855Z,1.51
2023-04-14T20:47:28.722Z,1.39
2023-04-14T20:49:55.498Z,1.53
2023-04-14T20:52:22.360Z,1.70
2023-04-14T20:54:49.065Z,1.63
2023-04-14T20:57:15.786Z,1.63
2023-04-14T20:59:45.072Z,1.54
2023-04-14T21:02:12.025Z,1.75
2023-04-14T21:04:38.801Z,1.60
2023-04-14T21:07:05.541Z,1.62
2023-04-14T21:09:32.407Z,1.61
2023-04-14T21:12:16.072Z,1.66
2023-04-14T21:15:45.651Z,1.69
2023-04-14T21:17:30.220Z,1.68
2023-04-14T21:19:57.296Z,1.74
2023-04-14T21:22:24.584Z,1.81
2023-04-14T21:24:52.295Z,1.87
2023-04-14T21:27:19.451Z,1.62
2023-04-14T21:29:48.124Z,1.52
2023-04-14T21:32:15.182Z,1.61
2023-04-14T21:34:42.463Z,1.59
2023-04-14T21:37:09.171Z,1.67
2023-04-14T21:39:36.047Z,1.73
2023-04-14T21:42:03.853Z,1.58
2023-04-14T21:44:31.012Z,1.51
2023-04-14T21:46:57.700Z,1.54
2023-04-14T21:49:27.757Z,1.46
2023-04-14T21:51:54.453Z,1.65
2023-04-14T21:54:21.204Z,1.57
2023-04-14T21:56:48.285Z,1.43
2023-04-14T21:59:15.011Z,1.44
2023-04-14T22:01:42.995Z,1.57
2023-04-14T22:04:14.575Z,1.54
2023-04-14T22:06:46.028Z,1.72
2023-04-14T22:09:12.692Z,1.71
2023-04-14T22:11:39.791Z,1.92
2023-04-14T22:14:06.528Z,1.85
2023-04-14T22:16:34.672Z,2.08
2023-04-14T22:19:01.664Z,1.92
2023-04-14T22:21:29.240Z,1.87
2023-04-14T22:23:55.990Z,1.75
2023-04-14T22:26:23.300Z,1.72
2023-04-14T22:28:50.001Z,1.94
2023-04-14T22:31:17.384Z,1.71
2023-04-14T22:33:44.616Z,1.87
2023-04-14T22:36:11.398Z,1.84
2023-04-14T22:38:38.495Z,1.82
2023-04-14T22:41:05.932Z,2.39
2023-04-14T22:43:35.449Z,1.87
2023-04-14T22:46:02.200Z,1.74
2023-04-14T22:48:28.995Z,1.60
2023-04-14T22:50:56.111Z,1.67
2023-04-14T22:53:23.196Z,1.73
2023-04-14T22:55:51.073Z,1.67
2023-04-14T22:58:18.071Z,1.69
2023-04-14T23:00:45.223Z,1.77
2023-04-14T23:03:12.415Z,1.57
2023-04-14T23:05:39.554Z,1.69
2023-04-14T23:08:07.135Z,1.18
2023-04-14T23:10:34.405Z,1.25
2023-04-14T23:13:01.839Z,1.32
2023-04-14T23:15:29.700Z,1.19
2023-04-14T23:17:56.972Z,1.25
2023-04-14T23:20:24.100Z,1.44
2023-04-14T23:22:50.919Z,1.37
2023-04-14T23:25:17.643Z,1.45
2023-04-14T23:27:44.695Z,1.55
2023-04-14T23:30:11.410Z,1.43
2023-04-14T23:32:38.151Z,1.60
2023-04-14T23:35:07.172Z,1.53
2023-04-14T23:37:34.251Z,1.49
2023-04-14T23:40:00.982Z,1.54
2023-04-14T23:42:29.026Z,1.46
2023-04-14T23:44:56.103Z,1.46
2023-04-14T23:47:22.854Z,1.26
2023-04-14T23:49:49.949Z,1.38
2023-04-14T23:52:18.100Z,1.36
2023-04-14T23:54:46.213Z,1.53
2023-04-14T23:57:13.920Z,1.65
2023-04-14T23:59:40.693Z,1.37
